ACA8005 CYUL-CYOW
Flight info
| Callsign | ACA8005 |
|---|---|
| Flight time | 0h 23m |
| Altitude | 12000 |
| Route | KESKA DCT ALSET RIVER4 |
| Aircraft | DH8D/M-SDE2E3FGRY/H |
Departure
| Time | 2026-05-07 10:57 |
|---|---|
| Airport | Montreal / Pierre Elliott Trudeau International Airport (CYUL) |
Arrival
| Time | 2026-05-07 11:20 |
|---|---|
| Airport | Ottawa Macdonald-Cartier International Airport (CYOW) |
| Time | Latitude | Longitude | Altitude | Speed | Heading |
|---|---|---|---|---|---|
| 2026-05-07 10:03 | 45.46092 | -73.74642 | 128 ft | 0 kts | 207° |
| 2026-05-07 10:32 | 45.46093 | -73.74642 | 128 ft | 1 kts | 207° |
| 2026-05-07 10:32 | 45.46106 | -73.74632 | 128 ft | 2 kts | 207° |
| 2026-05-07 10:33 | 45.46118 | -73.74624 | 128 ft | 0 kts | 207° |
| 2026-05-07 10:33 | 45.46128 | -73.74618 | 128 ft | 2 kts | 186° |
| 2026-05-07 10:33 | 45.46143 | -73.74621 | 128 ft | 2 kts | 157° |
| 2026-05-07 10:33 | 45.46155 | -73.74633 | 128 ft | 2 kts | 128° |
| 2026-05-07 10:34 | 45.46161 | -73.74651 | 128 ft | 2 kts | 99° |
| 2026-05-07 10:34 | 45.46161 | -73.74663 | 128 ft | 0 kts | 87° |
| 2026-05-07 10:39 | 45.46162 | -73.74655 | 128 ft | 6 kts | 87° |
| 2026-05-07 10:39 | 45.46140 | -73.74564 | 128 ft | 10 kts | 126° |
| 2026-05-07 10:39 | 45.46127 | -73.74463 | 128 ft | 12 kts | 90° |
| 2026-05-07 10:39 | 45.46133 | -73.74340 | 128 ft | 12 kts | 87° |
| 2026-05-07 10:40 | 45.46136 | -73.74218 | 128 ft | 12 kts | 86° |
| 2026-05-07 10:40 | 45.46140 | -73.74099 | 128 ft | 11 kts | 86° |
| 2026-05-07 10:40 | 45.46177 | -73.74005 | 128 ft | 11 kts | 43° |
| 2026-05-07 10:40 | 45.46234 | -73.73930 | 128 ft | 11 kts | 43° |
| 2026-05-07 10:41 | 45.46290 | -73.73855 | 128 ft | 11 kts | 43° |
| 2026-05-07 10:41 | 45.46347 | -73.73782 | 128 ft | 11 kts | 42° |
| 2026-05-07 10:41 | 45.46393 | -73.73723 | 128 ft | 1 kts | 42° |
| 2026-05-07 10:41 | 45.46390 | -73.73726 | 128 ft | 0 kts | 42° |
| 2026-05-07 10:42 | 45.46411 | -73.73698 | 128 ft | 9 kts | 42° |
| 2026-05-07 10:42 | 45.46480 | -73.73608 | 128 ft | 14 kts | 43° |
| 2026-05-07 10:42 | 45.46550 | -73.73515 | 128 ft | 13 kts | 40° |
| 2026-05-07 10:42 | 45.46620 | -73.73426 | 128 ft | 19 kts | 43° |
| 2026-05-07 10:43 | 45.46732 | -73.73279 | 128 ft | 21 kts | 42° |
| 2026-05-07 10:43 | 45.46840 | -73.73137 | 128 ft | 26 kts | 43° |
| 2026-05-07 10:43 | 45.46978 | -73.72955 | 128 ft | 25 kts | 42° |
| 2026-05-07 10:43 | 45.47103 | -73.72791 | 128 ft | 28 kts | 42° |
| 2026-05-07 10:44 | 45.47240 | -73.72613 | 128 ft | 25 kts | 41° |
| 2026-05-07 10:44 | 45.47358 | -73.72457 | 128 ft | 21 kts | 42° |
| 2026-05-07 10:44 | 45.47460 | -73.72323 | 128 ft | 18 kts | 43° |
| 2026-05-07 10:44 | 45.47551 | -73.72204 | 128 ft | 16 kts | 43° |
| 2026-05-07 10:45 | 45.47633 | -73.72096 | 128 ft | 15 kts | 42° |
| 2026-05-07 10:45 | 45.47709 | -73.71997 | 128 ft | 14 kts | 42° |
| 2026-05-07 10:45 | 45.47780 | -73.71903 | 128 ft | 13 kts | 42° |
| 2026-05-07 10:45 | 45.47803 | -73.71794 | 128 ft | 12 kts | 128° |
| 2026-05-07 10:46 | 45.47744 | -73.71700 | 128 ft | 12 kts | 132° |
| 2026-05-07 10:46 | 45.47719 | -73.71664 | 128 ft | 2 kts | 136° |
| 2026-05-07 10:46 | 45.47689 | -73.71641 | 128 ft | 5 kts | 174° |
| 2026-05-07 10:46 | 45.47657 | -73.71655 | 128 ft | 0 kts | 221° |
| 2026-05-07 10:47 | 45.47659 | -73.71654 | 128 ft | 1 kts | 221° |
| 2026-05-07 10:47 | 45.47657 | -73.71656 | 128 ft | 0 kts | 222° |
| 2026-05-07 10:47 | 45.47654 | -73.71660 | 128 ft | 0 kts | 223° |
| 2026-05-07 10:47 | 45.47651 | -73.71664 | 128 ft | 0 kts | 223° |
| 2026-05-07 10:48 | 45.47649 | -73.71667 | 128 ft | 0 kts | 223° |
| 2026-05-07 10:48 | 45.47646 | -73.71671 | 128 ft | 0 kts | 224° |
| 2026-05-07 10:48 | 45.47644 | -73.71673 | 128 ft | 0 kts | 224° |
| 2026-05-07 10:48 | 45.47643 | -73.71675 | 128 ft | 0 kts | 224° |
| 2026-05-07 10:49 | 45.47642 | -73.71675 | 128 ft | 0 kts | 224° |
| 2026-05-07 10:56 | 45.47641 | -73.71677 | 128 ft | 1 kts | 224° |
| 2026-05-07 10:56 | 45.47568 | -73.71782 | 128 ft | 25 kts | 226° |
| 2026-05-07 10:56 | 45.47401 | -73.72011 | 129 ft | 67 kts | 224° |
| 2026-05-07 10:56 | 45.46822 | -73.72759 | 131 ft | 146 kts | 225° |
| 2026-05-07 10:57 | 45.46049 | -73.73850 | 524 ft | 166 kts | 228° |
| 2026-05-07 10:57 | 45.45244 | -73.75051 | 1333 ft | 172 kts | 229° |
| 2026-05-07 10:57 | 45.44508 | -73.76329 | 2287 ft | 169 kts | 236° |
| 2026-05-07 10:57 | 45.43756 | -73.77655 | 2970 ft | 184 kts | 236° |
| 2026-05-07 10:58 | 45.42955 | -73.79168 | 3451 ft | 206 kts | 238° |
| 2026-05-07 10:58 | 45.41937 | -73.80729 | 4013 ft | 220 kts | 231° |
| 2026-05-07 10:58 | 45.40977 | -73.82391 | 4761 ft | 225 kts | 232° |
| 2026-05-07 10:58 | 45.39850 | -73.83931 | 5598 ft | 224 kts | 227° |
| 2026-05-07 10:59 | 45.38966 | -73.85846 | 5668 ft | 250 kts | 251° |
| 2026-05-07 10:59 | 45.38850 | -73.88165 | 5628 ft | 238 kts | 279° |
| 2026-05-07 10:59 | 45.39514 | -73.90305 | 5628 ft | 235 kts | 300° |
| 2026-05-07 10:59 | 45.40395 | -73.92281 | 5745 ft | 241 kts | 301° |
| 2026-05-07 11:00 | 45.41288 | -73.94257 | 6278 ft | 240 kts | 301° |
| 2026-05-07 11:00 | 45.42207 | -73.96281 | 6847 ft | 245 kts | 301° |
| 2026-05-07 11:00 | 45.43100 | -73.98216 | 7682 ft | 247 kts | 301° |
| 2026-05-07 11:00 | 45.44048 | -74.00230 | 8603 ft | 248 kts | 301° |
| 2026-05-07 11:01 | 45.45023 | -74.02273 | 9451 ft | 252 kts | 301° |
| 2026-05-07 11:01 | 45.46012 | -74.04321 | 10192 ft | 259 kts | 301° |
| 2026-05-07 11:01 | 45.47047 | -74.06413 | 11060 ft | 264 kts | 308° |
| 2026-05-07 11:01 | 45.48633 | -74.07774 | 11780 ft | 280 kts | 334° |
| 2026-05-07 11:02 | 45.50582 | -74.08741 | 11973 ft | 301 kts | 336° |
| 2026-05-07 11:02 | 45.52605 | -74.09779 | 12015 ft | 317 kts | 335° |
| 2026-05-07 11:02 | 45.54673 | -74.10891 | 12004 ft | 315 kts | 334° |
| 2026-05-07 11:02 | 45.56673 | -74.12006 | 12001 ft | 310 kts | 334° |
| 2026-05-07 11:03 | 45.58678 | -74.13169 | 11993 ft | 304 kts | 331° |
| 2026-05-07 11:03 | 45.60298 | -74.14878 | 11988 ft | 288 kts | 304° |
| 2026-05-07 11:03 | 45.61037 | -74.17448 | 12021 ft | 284 kts | 276° |
| 2026-05-07 11:03 | 45.61171 | -74.20338 | 12018 ft | 301 kts | 270° |
| 2026-05-07 11:04 | 45.61216 | -74.23400 | 12006 ft | 314 kts | 269° |
| 2026-05-07 11:04 | 45.61230 | -74.26432 | 12004 ft | 303 kts | 268° |
| 2026-05-07 11:04 | 45.61228 | -74.29447 | 11999 ft | 302 kts | 268° |
| 2026-05-07 11:04 | 45.61218 | -74.32400 | 12001 ft | 300 kts | 268° |
| 2026-05-07 11:05 | 45.61200 | -74.35391 | 11999 ft | 300 kts | 267° |
| 2026-05-07 11:05 | 45.61176 | -74.38357 | 11997 ft | 299 kts | 267° |
| 2026-05-07 11:05 | 45.61149 | -74.41319 | 12004 ft | 299 kts | 267° |
| 2026-05-07 11:05 | 45.61118 | -74.44289 | 12002 ft | 299 kts | 267° |
| 2026-05-07 11:06 | 45.61085 | -74.47249 | 11996 ft | 299 kts | 267° |
| 2026-05-07 11:06 | 45.61013 | -74.50220 | 11989 ft | 298 kts | 263° |
| 2026-05-07 11:06 | 45.60695 | -74.53117 | 12003 ft | 297 kts | 258° |
| 2026-05-07 11:06 | 45.60316 | -74.56012 | 12004 ft | 296 kts | 258° |
| 2026-05-07 11:07 | 45.59938 | -74.58875 | 12008 ft | 296 kts | 258° |
| 2026-05-07 11:07 | 45.59559 | -74.61752 | 12008 ft | 296 kts | 258° |
| 2026-05-07 11:07 | 45.59180 | -74.64635 | 12002 ft | 296 kts | 258° |
| 2026-05-07 11:07 | 45.58801 | -74.67510 | 12014 ft | 296 kts | 258° |
| 2026-05-07 11:08 | 45.58422 | -74.70396 | 12006 ft | 295 kts | 258° |
| 2026-05-07 11:08 | 45.58046 | -74.73254 | 11935 ft | 288 kts | 258° |
| 2026-05-07 11:08 | 45.57676 | -74.76037 | 11568 ft | 284 kts | 258° |
| 2026-05-07 11:08 | 45.57312 | -74.78770 | 10827 ft | 287 kts | 258° |
| 2026-05-07 11:09 | 45.56949 | -74.81494 | 10473 ft | 268 kts | 258° |
| 2026-05-07 11:09 | 45.56612 | -74.84003 | 10119 ft | 252 kts | 258° |
| 2026-05-07 11:09 | 45.56287 | -74.86427 | 9513 ft | 253 kts | 259° |
| 2026-05-07 11:09 | 45.55965 | -74.88856 | 9163 ft | 247 kts | 259° |
| 2026-05-07 11:10 | 45.55592 | -74.91239 | 8631 ft | 248 kts | 253° |
| 2026-05-07 11:10 | 45.55009 | -74.93545 | 8272 ft | 248 kts | 249° |
| 2026-05-07 11:10 | 45.54390 | -74.95837 | 8077 ft | 244 kts | 249° |
| 2026-05-07 11:10 | 45.53788 | -74.98055 | 8018 ft | 239 kts | 249° |
| 2026-05-07 11:11 | 45.53186 | -75.00285 | 8017 ft | 239 kts | 249° |
| 2026-05-07 11:11 | 45.52593 | -75.02486 | 8018 ft | 239 kts | 249° |
| 2026-05-07 11:11 | 45.52004 | -75.04672 | 8023 ft | 238 kts | 250° |
| 2026-05-07 11:11 | 45.51408 | -75.06879 | 8021 ft | 237 kts | 250° |
| 2026-05-07 11:12 | 45.50815 | -75.09079 | 8022 ft | 236 kts | 250° |
| 2026-05-07 11:12 | 45.50230 | -75.11248 | 8022 ft | 236 kts | 250° |
| 2026-05-07 11:12 | 45.49651 | -75.13386 | 7852 ft | 230 kts | 250° |
| 2026-05-07 11:12 | 45.49063 | -75.15542 | 7297 ft | 231 kts | 250° |
| 2026-05-07 11:13 | 45.48486 | -75.17664 | 6560 ft | 235 kts | 250° |
| 2026-05-07 11:13 | 45.47903 | -75.19809 | 6005 ft | 231 kts | 250° |
| 2026-05-07 11:13 | 45.47324 | -75.21938 | 5365 ft | 231 kts | 251° |
| 2026-05-07 11:13 | 45.46744 | -75.24072 | 4724 ft | 231 kts | 251° |
| 2026-05-07 11:14 | 45.46168 | -75.26193 | 4097 ft | 231 kts | 251° |
| 2026-05-07 11:14 | 45.45592 | -75.28320 | 3577 ft | 235 kts | 252° |
| 2026-05-07 11:14 | 45.45017 | -75.30460 | 3597 ft | 230 kts | 252° |
| 2026-05-07 11:14 | 45.44442 | -75.32588 | 3561 ft | 228 kts | 252° |
| 2026-05-07 11:15 | 45.43875 | -75.34656 | 3033 ft | 231 kts | 252° |
| 2026-05-07 11:15 | 45.43303 | -75.36756 | 2603 ft | 223 kts | 251° |
| 2026-05-07 11:15 | 45.42735 | -75.38872 | 2857 ft | 223 kts | 252° |
| 2026-05-07 11:15 | 45.42156 | -75.41029 | 2971 ft | 243 kts | 252° |
| 2026-05-07 11:16 | 45.41549 | -75.43265 | 2970 ft | 233 kts | 252° |
| 2026-05-07 11:16 | 45.40977 | -75.45302 | 2965 ft | 207 kts | 251° |
| 2026-05-07 11:16 | 45.40375 | -75.47012 | 2960 ft | 183 kts | 243° |
| 2026-05-07 11:16 | 45.39695 | -75.48531 | 2710 ft | 184 kts | 242° |
| 2026-05-07 11:17 | 45.39006 | -75.50066 | 2528 ft | 181 kts | 242° |
| 2026-05-07 11:17 | 45.38329 | -75.51576 | 2313 ft | 181 kts | 242° |
| 2026-05-07 11:17 | 45.37658 | -75.53066 | 2048 ft | 178 kts | 242° |
| 2026-05-07 11:17 | 45.36992 | -75.54540 | 1662 ft | 174 kts | 241° |
| 2026-05-07 11:18 | 45.36385 | -75.55877 | 1497 ft | 145 kts | 241° |
| 2026-05-07 11:18 | 45.35891 | -75.56952 | 1379 ft | 115 kts | 241° |
| 2026-05-07 11:18 | 45.35469 | -75.57914 | 1339 ft | 116 kts | 244° |
| 2026-05-07 11:18 | 45.35035 | -75.58970 | 1443 ft | 135 kts | 244° |
| 2026-05-07 11:19 | 45.34555 | -75.60025 | 1285 ft | 116 kts | 239° |
| 2026-05-07 11:19 | 45.34088 | -75.60938 | 1017 ft | 115 kts | 239° |
| 2026-05-07 11:19 | 45.33672 | -75.61892 | 887 ft | 112 kts | 243° |
| 2026-05-07 11:19 | 45.33275 | -75.62824 | 709 ft | 110 kts | 239° |
| 2026-05-07 11:20 | 45.32859 | -75.63734 | 541 ft | 109 kts | 239° |
| 2026-05-07 11:20 | 45.32455 | -75.64632 | 402 ft | 109 kts | 237° |
| 2026-05-07 11:20 | 45.32090 | -75.65437 | 375 ft | 68 kts | 237° |
| 2026-05-07 11:20 | 45.31893 | -75.65878 | 375 ft | 42 kts | 235° |
| 2026-05-07 11:21 | 45.31760 | -75.66174 | 373 ft | 28 kts | 239° |
| 2026-05-07 11:21 | 45.31780 | -75.66380 | 376 ft | 18 kts | 305° |
| 2026-05-07 11:21 | 45.31864 | -75.66444 | 377 ft | 13 kts | 34° |
| 2026-05-07 11:21 | 45.31912 | -75.66341 | 377 ft | 12 kts | 58° |
| 2026-05-07 11:22 | 45.31969 | -75.66280 | 376 ft | 7 kts | 307° |
| 2026-05-07 11:22 | 45.31981 | -75.66338 | 377 ft | 4 kts | 277° |
| 2026-05-07 11:22 | 45.31984 | -75.66373 | 377 ft | 3 kts | 276° |
| 2026-05-07 11:22 | 45.31991 | -75.66401 | 377 ft | 3 kts | 292° |
| 2026-05-07 11:23 | 45.32002 | -75.66426 | 377 ft | 3 kts | 314° |
| 2026-05-07 11:23 | 45.32018 | -75.66442 | 377 ft | 0 kts | 327° |
| 2026-05-07 11:23 | 45.32020 | -75.66443 | 377 ft | 0 kts | 327° |
| 2026-05-07 11:23 | 45.32021 | -75.66444 | 377 ft | 0 kts | 327° |